1K1

Lloyd Stearman Field Airport

Benton, Kansas, USA
METAR K1K1 202055Z AUTO 21010G15KT 10SM CLR 01/M03 A3013 RMK AO2 T00061035
Observed Flight Rules
Jan-20 @ 20:55 UTC (29 minutes ago) Visual Flight Rules
Wind Visibility Clouds
210° at 10 knots
 Gusting to 15 knots
10 miles
  • Clear skies
Temperatures Readings
Current 1°C / 34°F
Dewpoint -4°C / 25°F
Humidity 70%
Altimeter 30.13" Hg
Pressure 1020.32 hPa
Elevation 416
METAR K1K1 202055Z AUTO 21010G15KT 10SM CLR 01/M03 A3013 RMK AO2 T00061035
Observed Flight Rules
Jan-20 @ 20:55 UTC
(29 minutes ago)
VFR
Wind Visibility
210° at 10 knots
 Gusting to 15 knots
10 miles
Clouds
  • Clear skies
Temperature Dewpoint
1°C / 34°F -4°C / 25°F
Humidity Altimeter Pressure
70% 30.13" Hg 1020.32 hPa